»·PEaware :: SWA1852 KSNA-KSJC

SWA1852 :: KSNA-KSJC

FLIGHT INFORMATION

Flight Status: Arrived
Operator:
Southwest Airlines
More flights by this operator :: More flights under this callsign
Pilot: Kaleb W. (11686)
Aircraft: BOEING 737-800
(B738)
More flights by this aircraft type
Origin: KSNA John Wayne-Orange Co
United States
Destination: KSJC Mineta San Jose Intl
United States
More flights between these airports :: More routes between these airports
Route: CHANL3 RZS TROXX SILCN5
File this flight plan on PilotEdge
Remarks: RMK / SIMBRIEF
Altitude:
(Current/Filed)
30,000ft
Speed:
(Current/Filed)
414kts
Departed: 01-Feb-22 11:31 AM
Arrived: 01-Feb-22 12:34 PM
Distance/Time
Traveled:
297nm/1:03
Distance/Time
To Go:
Arrived

Flight Plot

Page will automatically refresh every two minutes.

Flight plan parsing failed; only flown route is shown


Map Options




Map Legend


Flown Route
Filed Route
Departure Airport
Arrival Airport
Navaid (VOR, NDB)
Fix

Horizontal Profiles

Position Reports

Time Latitude Longitude Heading Altitude Ground
Speed
01-Feb-22 10:49 33.677538 -117.863436 118 65ft 0kts
01-Feb-22 10:50 33.677538 -117.863436 118 65ft 0kts
01-Feb-22 10:51 33.677538 -117.863436 118 65ft 0kts
01-Feb-22 10:52 33.677538 -117.863436 118 65ft 0kts
01-Feb-22 10:53 33.677538 -117.863436 118 65ft 0kts
01-Feb-22 11:02 33.677538 -117.863436 118 65ft 0kts
01-Feb-22 11:03 33.677538 -117.863436 118 65ft 0kts
01-Feb-22 11:04 33.677538 -117.863436 118 65ft 0kts
01-Feb-22 11:05 33.677538 -117.863436 118 65ft 0kts
01-Feb-22 11:06 33.677538 -117.863436 118 65ft 0kts
01-Feb-22 11:07 33.677538 -117.863436 118 65ft 0kts
01-Feb-22 11:08 33.677538 -117.863436 118 65ft 0kts
01-Feb-22 11:09 33.677538 -117.863436 118 65ft 0kts
01-Feb-22 11:10 33.677538 -117.863436 118 65ft 0kts
01-Feb-22 11:11 33.677538 -117.863436 118 65ft 0kts
01-Feb-22 11:12 33.677538 -117.863436 118 65ft 0kts
01-Feb-22 11:13 33.677538 -117.863436 118 65ft 0kts
01-Feb-22 11:14 33.677538 -117.863436 118 65ft 0kts
01-Feb-22 11:15 33.677538 -117.863436 118 65ft 0kts
01-Feb-22 11:16 33.677538 -117.863436 118 65ft 0kts
01-Feb-22 11:17 33.677538 -117.863436 118 65ft 0kts
01-Feb-22 11:18 33.677538 -117.863436 118 65ft 0kts
01-Feb-22 11:19 33.677538 -117.863436 118 65ft 0kts
01-Feb-22 11:20 33.677538 -117.863436 118 65ft 0kts
01-Feb-22 11:21 33.677650 -117.863687 118 65ft 2kts
01-Feb-22 11:22 33.677662 -117.864236 31 65ft 0kts
01-Feb-22 11:23 33.677593 -117.864277 27 65ft 0kts
01-Feb-22 11:24 33.677593 -117.864277 27 65ft 0kts
01-Feb-22 11:25 33.677593 -117.864277 27 65ft 0kts
01-Feb-22 11:26 33.679112 -117.863292 26 65ft 17kts
01-Feb-22 11:27 33.680839 -117.861768 185 65ft 9kts
01-Feb-22 11:28 33.681124 -117.864122 296 65ft 0kts
01-Feb-22 11:29 33.681124 -117.864122 296 65ft 0kts
01-Feb-22 11:30 33.668844 -117.873108 204 153ft 162kts
01-Feb-22 11:31 33.615112 -117.885443 187 1531ft 234kts
01-Feb-22 11:32 33.550372 -117.916279 220 3307ft 271kts
01-Feb-22 11:33 33.488254 -117.970198 214 7022ft 287kts
01-Feb-22 11:34 33.420542 -118.024022 215 7951ft 288kts
01-Feb-22 11:35 33.358376 -118.084008 247 8011ft 285kts
01-Feb-22 11:36 33.357221 -118.177295 273 9183ft 286kts
01-Feb-22 11:37 33.364872 -118.269109 275 12560ft 292kts
01-Feb-22 11:38 33.371992 -118.376252 276 14079ft 333kts
01-Feb-22 11:39 33.397388 -118.477916 313 14006ft 328kts
01-Feb-22 11:40 33.481995 -118.517646 329 16050ft 330kts
01-Feb-22 11:41 33.560830 -118.577107 322 18594ft 339kts
01-Feb-22 11:42 33.638898 -118.642818 320 20963ft 347kts
01-Feb-22 11:43 33.718633 -118.710568 319 23011ft 358kts
01-Feb-22 11:44 33.798963 -118.778916 319 23004ft 354kts
01-Feb-22 11:45 33.880273 -118.848306 318 23811ft 360kts
01-Feb-22 11:46 33.962297 -118.918451 317 25637ft 368kts
01-Feb-22 11:47 34.046839 -118.990959 317 26998ft 385kts
01-Feb-22 11:48 34.129304 -119.078022 301 28159ft 388kts
01-Feb-22 11:49 34.189256 -119.184130 297 29967ft 381kts
01-Feb-22 11:50 34.247570 -119.290142 297 29991ft 374kts
01-Feb-22 11:51 34.305364 -119.395687 297 29991ft 377kts
01-Feb-22 11:52 34.362905 -119.501097 297 29990ft 376kts
01-Feb-22 11:53 34.420544 -119.606790 298 29990ft 376kts
01-Feb-22 11:54 34.478002 -119.712704 297 29991ft 376kts
01-Feb-22 11:55 34.552125 -119.804199 317 29995ft 396kts
01-Feb-22 11:56 34.644851 -119.876548 318 29995ft 397kts
01-Feb-22 11:57 34.737776 -119.948973 318 29998ft 398kts
01-Feb-22 11:58 34.830218 -120.021270 318 30000ft 395kts
01-Feb-22 11:59 34.922907 -120.094086 320 30006ft 399kts
01-Feb-22 12:00 35.017115 -120.168245 323 30013ft 410kts
01-Feb-22 12:01 35.113587 -120.244370 324 30018ft 414kts
01-Feb-22 12:02 35.210490 -120.321099 324 30023ft 414kts
01-Feb-22 12:03 35.306678 -120.397434 324 30033ft 414kts
01-Feb-22 12:04 35.403253 -120.474339 323 30040ft 414kts
01-Feb-22 12:05 35.499487 -120.551214 324 30051ft 412kts
01-Feb-22 12:06 35.595465 -120.628101 324 30057ft 416kts
01-Feb-22 12:07 35.691738 -120.705428 323 29115ft 405kts
01-Feb-22 12:08 35.783831 -120.779639 323 26809ft 390kts
01-Feb-22 12:09 35.872752 -120.851509 323 25962ft 386kts
01-Feb-22 12:10 35.960585 -120.922638 323 25854ft 374kts
01-Feb-22 12:11 36.047663 -120.997747 320 25319ft 381kts
01-Feb-22 12:12 36.129006 -121.075836 321 23204ft 364kts
01-Feb-22 12:13 36.207476 -121.150843 322 21079ft 350kts
01-Feb-22 12:14 36.282606 -121.222696 322 20011ft 342kts
01-Feb-22 12:15 36.358114 -121.295050 322 20009ft 342kts
01-Feb-22 12:16 36.432398 -121.366625 323 18294ft 333kts
01-Feb-22 12:17 36.506634 -121.431663 334 16196ft 322kts
01-Feb-22 12:18 36.586834 -121.467973 341 14772ft 300kts
01-Feb-22 12:19 36.664591 -121.500731 341 13017ft 292kts
01-Feb-22 12:20 36.740446 -121.532836 342 11270ft 286kts
01-Feb-22 12:21 36.814700 -121.564370 342 9517ft 281kts
01-Feb-22 12:22 36.887914 -121.595529 342 8006ft 273kts
01-Feb-22 12:23 36.959195 -121.625855 342 7858ft 257kts
01-Feb-22 12:24 37.025906 -121.654163 341 5835ft 251kts
01-Feb-22 12:25 37.091183 -121.682158 341 4016ft 249kts
01-Feb-22 12:26 37.153175 -121.708543 341 4018ft 229kts
01-Feb-22 12:27 37.200633 -121.752692 321 3347ft 209kts
01-Feb-22 12:28 37.240808 -121.796691 321 2728ft 169kts
01-Feb-22 12:29 37.272553 -121.831284 320 2285ft 130kts
01-Feb-22 12:30 37.299796 -121.860964 320 1596ft 130kts
01-Feb-22 12:31 37.327700 -121.891631 319 846ft 136kts
01-Feb-22 12:32 37.355800 -121.922265 318 116ft 133kts
01-Feb-22 12:33 37.366501 -121.935663 239 48ft 0kts
01-Feb-22 12:34 37.365719 -121.935200 138 49ft 15kts
01-Feb-22 12:35 37.361860 -121.930967 139 53ft 21kts
01-Feb-22 12:36 37.357445 -121.926136 136 59ft 14kts
01-Feb-22 12:37 37.360019 -121.921542 15 56ft 20kts
01-Feb-22 12:38 37.364191 -121.925382 339 51ft 10kts
01-Feb-22 12:39 37.364952 -121.925365 43 49ft 0kts
01-Feb-22 12:40 37.364952 -121.925365 43 49ft 0kts

Navigation Log

Ident Type
Flight plan parsing failed, navigation log unavailable